• Join FlightAware (Why Join?)
  • Login
  • US Flag 
12:21PM EDT


 

Airport Tracker/Info


-or-


 

Live Flight TrackerFlight Track Log ✈ BER8753 ✈ 04-May-2012 ✈ LOWW / VIE - EDDT / TXL

Flight Track Log - Related Links

Times and Time Zones

All times are in EDT time to prevent confusion due to time zone crossing. See the BER8753 flight status page for this flight to view local times or setup timezone preferences in your user account.

Time Position Orientation Groundspeed Altitude Reporting Facility
EDT Latitude Longitude Course Direction KTS MPH feet Rate Location/Type
01:41PM 48.9554 15.9968 336° Northwest  Level Estimated
01:42PM 49.0243 15.9492 336° Northwest  Level Estimated
01:43PM 49.0932 15.9015 336° Northwest  Level Estimated
01:44PM 49.1620 15.8536 336° Northwest  Level Estimated
01:45PM 49.2308 15.8055 335° Northwest  Level Estimated
01:46PM 49.2996 15.7574 335° Northwest  Level Estimated
01:47PM 49.3684 15.7091 335° Northwest  Level Estimated
01:48PM 49.4371 15.6607 335° Northwest  Level Estimated
01:49PM 49.5058 15.6121 335° Northwest  Level Estimated
01:50PM 49.5746 15.5634 335° Northwest  Level Estimated
01:51PM 49.6432 15.5146 335° Northwest  Level Estimated
01:52PM 49.7119 15.4656 335° Northwest  Level Estimated
01:53PM 49.7805 15.4165 335° Northwest  Level Estimated
01:54PM 49.8492 15.3673 335° Northwest  Level Estimated
01:55PM 49.9178 15.3179 335° Northwest  Level Estimated
01:56PM 49.9864 15.2683 335° Northwest  Level Estimated
01:57PM 50.0549 15.2187 335° Northwest  Level Estimated
01:58PM 50.1235 15.1689 335° Northwest  Level Estimated
01:59PM 50.1920 15.1189 335° Northwest  Level Estimated
02:00PM 50.2605 15.0688 335° Northwest  Level Estimated
02:01PM 50.3289 15.0186 335° Northwest  Level Estimated
02:02PM 50.3974 14.9682 335° Northwest  Level Estimated
02:03PM 50.4658 14.9176 335° Northwest  Level Estimated
02:04PM 50.5342 14.8670 335° Northwest  Level Estimated
02:05PM 50.6026 14.8161 335° Northwest  Level Estimated
02:06PM 50.6710 14.7651 335° Northwest  Level Estimated
02:07PM 50.7393 14.7140 335° Northwest  Level Estimated
02:08PM 50.8077 14.6627 335° Northwest  Level Estimated
02:09PM 50.8760 14.6113 335° Northwest  Level Estimated
02:10PM 50.9442 14.5597 335° Northwest  Level Estimated
02:11PM 51.0125 14.5080 334° Northwest  Level Estimated
02:12PM 51.0807 14.4561 334° Northwest  Level Estimated
02:13PM 51.1489 14.4041 334° Northwest  Level Estimated
02:14PM 51.2171 14.3519 334° Northwest  Level Estimated
02:15PM 51.2853 14.2996 334° Northwest  Level Estimated
02:16PM 51.3534 14.2471 334° Northwest  Level Estimated
02:17PM 51.4215 14.1944 334° Northwest  Level Estimated
02:18PM 51.4896 14.1416 334° Northwest  Level Estimated
02:19PM 51.5577 14.0886 334° Northwest  Level Estimated
02:20PM 51.6257 14.0355 334° Northwest  Level Estimated
02:21PM 51.6937 13.9822 334° Northwest  Level Estimated
02:22PM 51.7617 13.9288 334° Northwest  Level Estimated
02:23PM 51.8297 13.8751 334° Northwest  Level Estimated
02:24PM 51.8976 13.8214 334° Northwest  Level Estimated
02:25PM 51.9655 13.7674 334° Northwest  Level Estimated
02:26PM 52.0335 13.7133 334° Northwest  Level Estimated
02:27PM 52.1013 13.6591 334° Northwest  Level Estimated
02:28PM 52.1692 13.6046 334° Northwest  Level Estimated
02:29PM 52.2370 13.5501 334° Northwest  Level Estimated
02:30PM 52.3048 13.4953 334° Northwest  Level Estimated
02:31PM 52.3726 13.4404 334° Northwest  Level Estimated
02:32PM 52.4403 13.3853 334° Northwest  Level Estimated
02:33PM 52.5080 13.3300 334° Northwest  Level Estimated
02:34PM 52.5757 13.2746 153° Southeast  Level Estimated
02:35PM 52.5080 13.3300 334° Northwest  Level Estimated
02:36PM 52.5757 13.2746 153° Southeast  Level Estimated
02:37PM 52.5080 13.3300 334° Northwest  Level Estimated
02:38PM 52.5757 13.2746 153° Southeast  Level Estimated
02:39PM 52.5080 13.3300 334° Northwest  Level Estimated
02:40PM 52.5757 13.2746 153° Southeast  Level Estimated
02:41PM 52.5080 13.3300 334° Northwest  Level Estimated
02:42PM 52.5757 13.2746 153° Southeast  Level Estimated
02:43PM 52.5080 13.3300 334° Northwest  Level Estimated
02:44PM 52.5757 13.2746 153° Southeast  Level Estimated
02:45PM 52.5080 13.3300 334° Northwest  Level Estimated
02:46PM 52.5757 13.2746 153° Southeast  Level Estimated
02:47PM 52.5080 13.3300 334° Northwest  Level Estimated
02:48PM 52.5757 13.2746 153° Southeast  Level Estimated
02:49PM 52.5080 13.3300 153° Southeast  Level Estimated